createdAt,value
2018-03-28T00:02:08.442Z,50.52
2018-03-28T00:04:36.877Z,50.97
2018-03-28T00:07:05.370Z,51.54
2018-03-28T00:09:33.882Z,50.49
2018-03-28T00:12:02.342Z,51.71
2018-03-28T00:14:30.941Z,50.91
2018-03-28T00:16:59.358Z,50.35
2018-03-28T00:19:27.996Z,51.39
2018-03-28T00:21:56.436Z,51.38
2018-03-28T00:24:24.885Z,51.17
2018-03-28T00:26:53.495Z,52.14
2018-03-28T00:29:22.045Z,51.36
2018-03-28T00:31:50.915Z,50.90
2018-03-28T00:34:20.526Z,51.05
2018-03-28T00:36:49.887Z,49.96
2018-03-28T00:39:19.295Z,50.53
2018-03-28T00:41:48.083Z,51.75
2018-03-28T00:44:16.751Z,51.53
2018-03-28T00:46:45.326Z,52.53
2018-03-28T00:49:14.059Z,51.74
2018-03-28T00:51:42.507Z,51.11
2018-03-28T00:54:11.008Z,50.94
2018-03-28T00:56:39.454Z,49.77
2018-03-28T00:59:07.947Z,50.13
2018-03-28T01:01:37.127Z,51.16
2018-03-28T01:04:05.766Z,51.78
2018-03-28T01:06:34.499Z,51.54
2018-03-28T01:09:03.290Z,51.04
2018-03-28T01:11:32.315Z,51.21
2018-03-28T01:14:04.575Z,50.00
2018-03-28T01:16:33.295Z,50.58
2018-03-28T01:19:01.771Z,50.89
2018-03-28T01:21:30.183Z,50.45
2018-03-28T01:23:58.594Z,50.14
2018-03-28T01:26:27.306Z,51.40
2018-03-28T01:29:00.019Z,50.59
2018-03-28T01:31:28.512Z,50.00
2018-03-28T01:33:57.150Z,50.30
2018-03-28T01:36:25.690Z,49.59
2018-03-28T01:38:54.275Z,49.94
2018-03-28T01:41:23.043Z,50.51
2018-03-28T01:43:51.642Z,50.00
2018-03-28T01:46:20.227Z,50.83
2018-03-28T01:48:50.805Z,50.55
2018-03-28T01:51:19.239Z,50.78
2018-03-28T01:53:48.174Z,50.40
2018-03-28T01:56:17.504Z,49.68
2018-03-28T01:58:46.329Z,49.60
2018-03-28T02:01:17.962Z,52.16
2018-03-28T02:03:46.577Z,50.56
2018-03-28T02:06:14.962Z,50.58
2018-03-28T02:08:43.502Z,51.05
2018-03-28T02:11:11.999Z,51.97
2018-03-28T02:13:40.777Z,51.42
2018-03-28T02:16:10.232Z,51.87
2018-03-28T02:18:38.938Z,51.58
2018-03-28T02:21:07.490Z,52.10
2018-03-28T02:23:37.333Z,52.18
2018-03-28T02:26:06.031Z,51.22
2018-03-28T02:28:35.366Z,50.56
2018-03-28T02:31:04.477Z,51.52
2018-03-28T02:33:33.121Z,53.38
2018-03-28T02:36:02.323Z,53.61
2018-03-28T02:38:30.906Z,53.38
2018-03-28T02:41:00.149Z,53.85
2018-03-28T02:43:28.738Z,53.81
2018-03-28T02:45:57.460Z,53.54
2018-03-28T02:48:26.848Z,53.80
2018-03-28T02:50:55.293Z,53.49
2018-03-28T02:53:23.782Z,53.06
2018-03-28T02:55:52.292Z,53.98
2018-03-28T02:58:20.771Z,53.28
2018-03-28T03:00:52.155Z,53.54
2018-03-28T03:03:21.272Z,53.68
2018-03-28T03:05:49.964Z,53.81
2018-03-28T03:08:18.415Z,54.35
2018-03-28T03:10:47.163Z,52.93
2018-03-28T03:13:15.886Z,52.77
2018-03-28T03:15:44.601Z,53.16
2018-03-28T03:18:13.438Z,52.55
2018-03-28T03:20:43.800Z,53.49
2018-03-28T03:23:12.544Z,54.50
2018-03-28T03:25:41.821Z,54.90
2018-03-28T03:28:12.518Z,54.32
2018-03-28T03:30:43.184Z,54.03
2018-03-28T03:33:11.778Z,53.66
2018-03-28T03:35:42.073Z,52.99
2018-03-28T03:38:11.344Z,53.17
2018-03-28T03:40:40.026Z,53.57
2018-03-28T03:43:09.002Z,53.75
2018-03-28T03:45:39.190Z,52.12
2018-03-28T03:48:07.572Z,52.00
2018-03-28T03:50:36.270Z,53.63
2018-03-28T03:53:04.795Z,53.22
2018-03-28T03:55:34.354Z,52.66
2018-03-28T03:58:03.003Z,52.42
2018-03-28T04:00:31.551Z,52.96
2018-03-28T04:02:59.989Z,53.18
2018-03-28T04:05:28.507Z,53.61
2018-03-28T04:07:56.982Z,53.89
2018-03-28T04:10:25.462Z,54.28
2018-03-28T04:12:53.987Z,54.24
2018-03-28T04:15:22.527Z,53.29
2018-03-28T04:17:51.076Z,53.48
2018-03-28T04:20:19.667Z,53.25
2018-03-28T04:22:48.137Z,54.42
2018-03-28T04:25:16.735Z,53.77
2018-03-28T04:27:45.300Z,53.34
2018-03-28T04:30:13.815Z,53.87
2018-03-28T04:32:42.212Z,53.49
2018-03-28T04:35:10.855Z,54.05
2018-03-28T04:37:40.057Z,54.35
2018-03-28T04:40:10.425Z,53.51
2018-03-28T04:42:39.043Z,52.47
2018-03-28T04:45:09.191Z,52.27
2018-03-28T04:47:37.663Z,52.77
2018-03-28T04:50:06.079Z,53.25
2018-03-28T04:52:35.433Z,55.29
2018-03-28T04:55:04.398Z,55.57
2018-03-28T04:57:33.512Z,55.65
2018-03-28T05:00:02.223Z,55.54
2018-03-28T05:02:30.941Z,55.80
2018-03-28T05:04:59.827Z,56.25
2018-03-28T05:07:29.116Z,55.60
2018-03-28T05:09:58.682Z,55.36
2018-03-28T05:12:28.318Z,55.65
2018-03-28T05:14:57.986Z,54.87
2018-03-28T05:17:26.636Z,55.51
2018-03-28T05:19:55.540Z,54.72
2018-03-28T05:22:24.643Z,55.19
2018-03-28T05:24:53.320Z,54.40
2018-03-28T05:27:21.867Z,55.22
2018-03-28T05:29:50.832Z,55.17
2018-03-28T05:32:19.247Z,55.59
2018-03-28T05:34:48.390Z,55.61
2018-03-28T05:37:17.509Z,56.05
2018-03-28T05:39:46.541Z,55.52
2018-03-28T05:42:15.794Z,56.97
2018-03-28T05:44:44.939Z,58.51
2018-03-28T05:47:14.012Z,58.99
2018-03-28T05:49:42.827Z,58.73
2018-03-28T05:52:11.777Z,58.98
2018-03-28T05:54:41.171Z,60.14
2018-03-28T05:57:10.060Z,60.17
2018-03-28T05:59:39.060Z,62.24
2018-03-28T06:02:07.653Z,62.53
2018-03-28T06:04:36.387Z,62.74
2018-03-28T06:07:04.891Z,63.55
2018-03-28T06:09:33.408Z,64.22
2018-03-28T06:12:01.816Z,65.06
2018-03-28T06:14:30.339Z,63.91
2018-03-28T06:16:58.811Z,66.06
2018-03-28T06:19:27.258Z,66.06
2018-03-28T06:21:55.791Z,66.97
2018-03-28T06:24:24.180Z,66.84
2018-03-28T06:26:52.593Z,67.20
2018-03-28T06:29:20.988Z,68.14
2018-03-28T06:31:49.402Z,69.07
2018-03-28T06:34:17.787Z,68.26
2018-03-28T06:36:46.175Z,67.29
2018-03-28T06:39:14.706Z,67.31
2018-03-28T06:41:43.348Z,67.89
2018-03-28T06:44:11.855Z,66.83
2018-03-28T06:46:40.259Z,67.57
2018-03-28T06:49:08.785Z,65.93
2018-03-28T06:51:37.205Z,66.49
2018-03-28T06:54:06.040Z,67.87
2018-03-28T06:56:34.845Z,69.65
2018-03-28T06:59:03.766Z,70.87
2018-03-28T07:01:32.167Z,69.72
2018-03-28T07:04:00.627Z,69.73
2018-03-28T07:06:29.992Z,69.24
2018-03-28T07:08:58.939Z,69.96
2018-03-28T07:11:27.778Z,69.76
2018-03-28T07:13:56.964Z,69.08
2018-03-28T07:16:26.578Z,68.41
2018-03-28T07:18:55.334Z,68.81
2018-03-28T07:21:24.238Z,68.11
2018-03-28T07:23:53.949Z,67.14
2018-03-28T07:26:23.556Z,67.30
2018-03-28T07:28:52.639Z,67.99
2018-03-28T07:31:21.633Z,68.63
2018-03-28T07:33:51.804Z,68.90
2018-03-28T07:36:21.484Z,68.13
2018-03-28T07:38:49.926Z,70.47
2018-03-28T07:41:18.391Z,69.17
2018-03-28T07:43:46.925Z,70.52
2018-03-28T07:46:15.315Z,70.76
2018-03-28T07:48:43.690Z,70.16
2018-03-28T07:51:15.491Z,70.85
2018-03-28T07:53:44.284Z,70.73
2018-03-28T07:56:23.418Z,70.99
2018-03-28T07:58:52.916Z,70.93
2018-03-28T08:01:21.585Z,71.57
2018-03-28T08:03:50.069Z,71.91
2018-03-28T08:06:18.601Z,71.78
2018-03-28T08:08:47.460Z,72.78
2018-03-28T08:11:15.959Z,73.09
2018-03-28T08:13:44.570Z,73.15
2018-03-28T08:16:13.041Z,72.04
2018-03-28T08:18:41.547Z,70.80
2018-03-28T08:21:10.031Z,70.70
2018-03-28T08:23:38.791Z,72.13
2018-03-28T08:26:07.386Z,72.92
2018-03-28T08:28:35.866Z,72.86
2018-03-28T08:31:04.545Z,73.27
2018-03-28T08:33:33.027Z,73.86
2018-03-28T08:36:01.844Z,72.33
2018-03-28T08:38:30.317Z,73.69
2018-03-28T08:40:58.793Z,71.40
2018-03-28T08:43:27.265Z,72.08
2018-03-28T08:45:55.772Z,72.42
2018-03-28T08:48:24.259Z,73.12
2018-03-28T08:50:52.940Z,73.97
2018-03-28T08:53:21.426Z,74.04
2018-03-28T08:55:50.223Z,74.45
2018-03-28T08:58:18.977Z,73.82
2018-03-28T09:00:47.613Z,72.91
2018-03-28T09:03:16.102Z,73.61
2018-03-28T09:05:44.578Z,72.60
2018-03-28T09:08:13.107Z,72.63
2018-03-28T09:10:41.578Z,72.05
2018-03-28T09:13:10.246Z,72.19
2018-03-28T09:15:38.758Z,70.82
2018-03-28T09:18:07.361Z,71.35
2018-03-28T09:20:35.949Z,70.93
2018-03-28T09:23:04.609Z,72.66
2018-03-28T09:25:33.079Z,71.99
2018-03-28T09:28:01.774Z,72.46
2018-03-28T09:30:30.269Z,72.02
2018-03-28T09:32:59.340Z,72.67
2018-03-28T09:35:27.806Z,71.22
2018-03-28T09:37:56.441Z,71.45
2018-03-28T09:40:24.953Z,72.64
2018-03-28T09:42:53.459Z,72.32
2018-03-28T09:45:22.234Z,71.81
2018-03-28T09:47:50.786Z,72.36
2018-03-28T09:50:19.526Z,72.06
2018-03-28T09:52:48.130Z,72.61
2018-03-28T09:55:16.669Z,72.21
2018-03-28T09:57:45.196Z,72.56
2018-03-28T10:00:19.806Z,71.27
2018-03-28T10:02:48.443Z,72.99
2018-03-28T10:05:16.915Z,72.26
2018-03-28T10:07:45.489Z,70.88
2018-03-28T10:10:13.959Z,71.06
2018-03-28T10:12:42.713Z,71.34
2018-03-28T10:15:11.238Z,71.29
2018-03-28T10:17:39.757Z,72.26
2018-03-28T10:20:08.406Z,71.29
2018-03-28T10:22:37.126Z,70.69
2018-03-28T10:25:05.637Z,70.71
2018-03-28T10:27:34.168Z,71.88
2018-03-28T10:30:02.721Z,70.66
2018-03-28T10:32:31.275Z,71.29
2018-03-28T10:34:59.754Z,72.84
2018-03-28T10:37:28.241Z,72.15
2018-03-28T10:39:56.952Z,72.14
2018-03-28T10:42:25.439Z,72.11
2018-03-28T10:44:54.176Z,72.86
2018-03-28T10:47:22.678Z,71.35
2018-03-28T10:49:51.186Z,73.92
2018-03-28T10:52:19.665Z,73.41
2018-03-28T10:54:48.216Z,74.32
2018-03-28T10:57:16.745Z,74.51
2018-03-28T10:59:45.406Z,74.44
2018-03-28T11:02:13.876Z,74.59
2018-03-28T11:04:42.411Z,74.26
2018-03-28T11:07:10.908Z,72.81
2018-03-28T11:09:39.871Z,72.78
2018-03-28T11:12:08.378Z,72.84
2018-03-28T11:14:36.996Z,74.03
2018-03-28T11:17:05.566Z,74.93
2018-03-28T11:19:34.398Z,74.36
2018-03-28T11:22:03.106Z,74.57
2018-03-28T11:24:31.840Z,75.10
2018-03-28T11:27:00.359Z,74.74
2018-03-28T11:29:28.939Z,74.74
2018-03-28T11:31:57.568Z,73.79
2018-03-28T11:34:26.050Z,74.25
2018-03-28T11:36:54.910Z,73.33
2018-03-28T11:39:23.421Z,73.00
2018-03-28T11:41:52.305Z,74.46
2018-03-28T11:44:20.838Z,74.45
2018-03-28T11:46:49.370Z,74.64
2018-03-28T11:49:17.879Z,75.60
2018-03-28T11:51:46.669Z,74.74
2018-03-28T11:54:15.285Z,73.62
2018-03-28T11:56:43.823Z,73.28
2018-03-28T11:59:12.355Z,75.06
2018-03-28T12:01:41.003Z,74.12
2018-03-28T12:04:09.519Z,75.31
2018-03-28T12:06:38.102Z,76.22
2018-03-28T12:09:06.575Z,76.52
2018-03-28T12:11:35.053Z,75.51
2018-03-28T12:14:03.614Z,73.79
2018-03-28T12:16:32.284Z,75.53
2018-03-28T12:19:00.773Z,75.31
2018-03-28T12:21:29.300Z,74.69
2018-03-28T12:23:57.939Z,72.91
2018-03-28T12:26:26.518Z,74.32
2018-03-28T12:28:55.046Z,74.64
2018-03-28T12:31:23.791Z,73.87
2018-03-28T12:33:52.309Z,73.31
2018-03-28T12:36:21.092Z,73.23
2018-03-28T12:38:49.848Z,73.45
2018-03-28T12:41:18.494Z,73.86
2018-03-28T12:43:47.009Z,75.47
2018-03-28T12:46:15.534Z,73.33
2018-03-28T12:48:45.915Z,74.27
2018-03-28T12:51:14.421Z,73.83
2018-03-28T12:53:42.971Z,74.14
2018-03-28T12:56:11.758Z,74.35
2018-03-28T12:58:40.327Z,75.00
2018-03-28T13:01:08.973Z,74.74
2018-03-28T13:03:37.526Z,74.65
2018-03-28T13:06:06.157Z,73.56
2018-03-28T13:08:34.640Z,74.19
2018-03-28T13:11:05.366Z,74.91
2018-03-28T13:13:33.972Z,74.00
2018-03-28T13:16:02.534Z,73.40
2018-03-28T13:18:31.284Z,73.63
2018-03-28T13:20:59.732Z,74.44
2018-03-28T13:23:28.189Z,75.21
2018-03-28T13:25:56.735Z,75.07
2018-03-28T13:28:25.222Z,74.43
2018-03-28T13:30:53.739Z,73.36
2018-03-28T13:33:22.373Z,71.24
2018-03-28T13:35:50.847Z,72.58
2018-03-28T13:38:20.274Z,73.21
2018-03-28T13:40:49.085Z,73.59
2018-03-28T13:43:17.570Z,73.45
2018-03-28T13:45:46.407Z,73.92
2018-03-28T13:48:15.010Z,73.89
2018-03-28T13:50:43.575Z,74.15
2018-03-28T13:53:12.062Z,74.14
2018-03-28T13:55:41.055Z,74.67
2018-03-28T13:58:09.757Z,75.69
2018-03-28T14:00:38.781Z,75.56
2018-03-28T14:03:07.695Z,74.31
2018-03-28T14:05:36.224Z,74.66
2018-03-28T14:08:04.749Z,74.01
2018-03-28T14:10:33.214Z,74.87
2018-03-28T14:13:01.761Z,74.24
2018-03-28T14:15:30.295Z,73.74
2018-03-28T14:17:58.882Z,73.87
2018-03-28T14:20:27.375Z,73.82
2018-03-28T14:22:56.044Z,73.34
2018-03-28T14:25:24.550Z,73.26
2018-03-28T14:27:53.013Z,73.28
2018-03-28T14:30:21.589Z,73.09
2018-03-28T14:32:50.105Z,71.93
2018-03-28T14:35:18.586Z,72.13
2018-03-28T14:37:47.237Z,73.17
2018-03-28T14:40:15.769Z,72.87
2018-03-28T14:42:54.587Z,71.60
2018-03-28T14:45:12.964Z,72.85
2018-03-28T14:47:41.466Z,71.53
2018-03-28T14:50:09.938Z,71.71
2018-03-28T14:52:38.494Z,72.75
2018-03-28T14:55:06.993Z,72.19
2018-03-28T14:57:35.857Z,72.08
2018-03-28T15:00:04.361Z,73.06
2018-03-28T15:02:32.872Z,72.10
2018-03-28T15:05:01.649Z,71.98
2018-03-28T15:07:30.252Z,71.56
2018-03-28T15:09:58.816Z,70.88
2018-03-28T15:12:27.489Z,70.85
2018-03-28T15:14:56.029Z,71.28
2018-03-28T15:17:24.629Z,70.85
2018-03-28T15:19:53.182Z,71.48
2018-03-28T15:22:21.833Z,69.88
2018-03-28T15:24:50.481Z,70.81
2018-03-28T15:27:18.961Z,70.94
2018-03-28T15:29:47.700Z,69.69
2018-03-28T15:32:16.182Z,71.06
2018-03-28T15:34:45.044Z,71.63
2018-03-28T15:37:13.686Z,70.01
2018-03-28T15:39:42.210Z,72.22
2018-03-28T15:42:11.022Z,72.77
2018-03-28T15:44:40.013Z,73.04
2018-03-28T15:47:08.588Z,72.00
2018-03-28T15:49:37.638Z,71.30
2018-03-28T15:52:06.183Z,70.76
2018-03-28T15:54:34.660Z,70.47
2018-03-28T15:57:03.134Z,72.25
2018-03-28T15:59:32.518Z,71.36
2018-03-28T16:02:00.993Z,72.17
2018-03-28T16:04:29.573Z,70.61
2018-03-28T16:06:58.089Z,70.23
2018-03-28T16:09:26.824Z,71.91
2018-03-28T16:11:55.293Z,70.63
2018-03-28T16:14:24.008Z,71.06
2018-03-28T16:16:52.466Z,70.72
2018-03-28T16:19:21.163Z,70.57
2018-03-28T16:21:49.745Z,69.58
2018-03-28T16:24:18.296Z,70.11
2018-03-28T16:26:46.755Z,70.83
2018-03-28T16:29:15.501Z,71.07
2018-03-28T16:31:43.953Z,71.89
2018-03-28T16:34:12.485Z,71.29
2018-03-28T16:36:41.066Z,71.29
2018-03-28T16:39:09.552Z,71.72
2018-03-28T16:41:39.698Z,71.09
2018-03-28T16:44:08.683Z,71.34
2018-03-28T16:46:37.239Z,71.03
2018-03-28T16:49:05.692Z,69.83
2018-03-28T16:51:34.279Z,70.03
2018-03-28T16:54:03.257Z,72.22
2018-03-28T16:56:31.804Z,70.86
2018-03-28T16:59:00.283Z,70.91
2018-03-28T17:01:28.749Z,71.80
2018-03-28T17:05:15.488Z,71.46
2018-03-28T17:07:43.953Z,70.93
2018-03-28T17:10:12.432Z,71.66
2018-03-28T17:12:40.870Z,71.24
2018-03-28T17:15:09.327Z,71.36
2018-03-28T17:17:37.780Z,71.75
2018-03-28T17:20:06.239Z,70.99
2018-03-28T17:22:34.676Z,70.07
2018-03-28T17:25:03.131Z,69.60
2018-03-28T17:27:31.587Z,70.40
2018-03-28T17:30:00.052Z,72.13
2018-03-28T17:32:28.892Z,71.73
2018-03-28T17:34:57.379Z,71.83
2018-03-28T17:37:25.844Z,70.99
2018-03-28T17:39:54.287Z,71.18
2018-03-28T17:42:23.218Z,70.71
2018-03-28T17:44:51.693Z,68.54
2018-03-28T17:47:20.141Z,70.76
2018-03-28T17:49:48.983Z,71.11
2018-03-28T17:52:17.431Z,70.61
2018-03-28T17:54:45.869Z,69.46
2018-03-28T17:57:14.308Z,71.30
2018-03-28T17:59:42.744Z,69.17
2018-03-28T18:02:11.594Z,69.37
2018-03-28T18:04:40.028Z,71.75
2018-03-28T18:07:08.870Z,71.12
2018-03-28T18:09:37.311Z,71.54
2018-03-28T18:12:05.813Z,70.34
2018-03-28T18:14:34.260Z,69.80
2018-03-28T18:17:02.716Z,69.94
2018-03-28T18:19:31.167Z,71.01
2018-03-28T18:21:59.622Z,70.42
2018-03-28T18:24:28.053Z,72.49
2018-03-28T18:26:56.551Z,71.46
2018-03-28T18:29:25.404Z,71.35
2018-03-28T18:31:53.896Z,71.54
2018-03-28T18:34:22.329Z,69.91
2018-03-28T18:36:50.782Z,70.13
2018-03-28T18:39:19.607Z,71.62
2018-03-28T18:41:48.052Z,71.08
2018-03-28T18:44:16.980Z,70.10
2018-03-28T18:46:45.442Z,70.14
2018-03-28T18:49:13.949Z,70.44
2018-03-28T18:51:42.446Z,70.83
2018-03-28T18:54:10.916Z,72.08
2018-03-28T18:56:39.397Z,70.50
2018-03-28T18:59:07.894Z,70.43
2018-03-28T19:01:36.349Z,71.32
2018-03-28T19:04:04.840Z,71.17
2018-03-28T19:06:33.320Z,69.41
2018-03-28T19:09:01.761Z,69.12
2018-03-28T19:11:30.595Z,69.98
2018-03-28T19:13:59.073Z,70.86
2018-03-28T19:16:27.521Z,69.95
2018-03-28T19:18:55.988Z,69.34
2018-03-28T19:21:24.831Z,69.79
2018-03-28T19:23:53.304Z,70.30
2018-03-28T19:26:21.749Z,69.22
2018-03-28T19:28:50.684Z,67.25
2018-03-28T19:31:19.170Z,67.66
2018-03-28T19:33:47.685Z,67.55
2018-03-28T19:36:16.568Z,68.74
2018-03-28T19:38:45.110Z,69.83
2018-03-28T19:41:13.553Z,71.04
2018-03-28T19:43:42.406Z,70.17
2018-03-28T19:46:10.889Z,68.93
2018-03-28T19:48:39.328Z,69.41
2018-03-28T19:51:07.789Z,69.96
2018-03-28T19:53:36.620Z,70.17
2018-03-28T19:56:05.095Z,71.30
2018-03-28T19:58:33.578Z,71.07
2018-03-28T20:01:02.240Z,71.70
2018-03-28T20:03:30.979Z,72.27
2018-03-28T20:05:59.463Z,73.52
2018-03-28T20:08:27.923Z,73.14
2018-03-28T20:10:56.391Z,72.77
2018-03-28T20:13:25.495Z,72.97
2018-03-28T20:15:53.966Z,73.21
2018-03-28T20:18:22.426Z,74.99
2018-03-28T20:20:50.939Z,76.54
2018-03-28T20:23:19.386Z,75.36
2018-03-28T20:25:48.706Z,75.27
2018-03-28T20:28:18.309Z,75.33
2018-03-28T20:30:47.483Z,76.30
2018-03-28T20:33:17.821Z,75.63
2018-03-28T20:35:47.882Z,77.32
2018-03-28T20:38:18.264Z,75.38
2018-03-28T20:40:47.712Z,75.06
2018-03-28T20:43:17.571Z,75.45
2018-03-28T20:45:49.448Z,75.55
2018-03-28T20:48:18.628Z,76.55
2018-03-28T20:50:52.338Z,76.18
2018-03-28T20:53:20.790Z,76.64
2018-03-28T20:55:49.270Z,77.63
2018-03-28T20:58:17.823Z,76.22
2018-03-28T21:00:46.342Z,76.36
2018-03-28T21:03:18.192Z,76.55
2018-03-28T21:05:46.704Z,76.60
2018-03-28T21:08:15.573Z,77.35
2018-03-28T21:10:44.031Z,76.68
2018-03-28T21:13:13.136Z,78.46
2018-03-28T21:15:41.599Z,76.96
2018-03-28T21:18:10.073Z,77.21
2018-03-28T21:20:39.061Z,77.83
2018-03-28T21:23:07.558Z,76.53
2018-03-28T21:25:36.031Z,77.22
2018-03-28T21:28:04.829Z,76.05
2018-03-28T21:30:33.538Z,76.21
2018-03-28T21:33:03.163Z,78.17
2018-03-28T21:35:33.945Z,76.88
2018-03-28T21:38:02.420Z,77.20
2018-03-28T21:40:31.106Z,75.80
2018-03-28T21:42:59.603Z,76.41
2018-03-28T21:45:28.077Z,77.21
2018-03-28T21:47:56.528Z,76.70
2018-03-28T21:50:25.317Z,77.41
2018-03-28T21:52:53.827Z,77.02
2018-03-28T21:55:22.390Z,76.34
2018-03-28T21:57:52.088Z,76.60
2018-03-28T22:00:20.546Z,77.18
2018-03-28T22:02:49.390Z,75.03
2018-03-28T22:05:17.876Z,76.64
2018-03-28T22:07:46.641Z,76.16
2018-03-28T22:10:15.813Z,76.99
2018-03-28T22:12:44.311Z,75.83
2018-03-28T22:15:15.409Z,75.24
2018-03-28T22:17:44.744Z,76.71
2018-03-28T22:20:15.018Z,78.05
2018-03-28T22:22:43.589Z,76.97
2018-03-28T22:25:12.076Z,77.67
2018-03-28T22:27:41.389Z,76.09
2018-03-28T22:30:10.023Z,76.39
2018-03-28T22:32:39.972Z,77.11
2018-03-28T22:35:08.617Z,76.67
2018-03-28T22:37:37.794Z,76.12
2018-03-28T22:40:07.425Z,74.87
2018-03-28T22:42:36.702Z,74.90
2018-03-28T22:45:05.441Z,73.84
2018-03-28T22:47:34.519Z,73.40
2018-03-28T22:50:04.022Z,74.21
2018-03-28T22:52:33.283Z,74.77
2018-03-28T22:55:02.715Z,74.49
2018-03-28T22:57:32.107Z,75.37
2018-03-28T23:00:02.565Z,75.62
2018-03-28T23:02:31.948Z,77.19
2018-03-28T23:05:02.604Z,77.01
2018-03-28T23:07:32.784Z,76.70
2018-03-28T23:10:03.759Z,76.55
2018-03-28T23:12:32.695Z,79.35
2018-03-28T23:15:01.299Z,78.25
2018-03-28T23:17:30.151Z,77.92
2018-03-28T23:19:58.628Z,76.82
2018-03-28T23:22:38.479Z,77.59
2018-03-28T23:25:06.934Z,75.95
2018-03-28T23:27:35.389Z,75.39
2018-03-28T23:30:03.866Z,76.10
2018-03-28T23:32:32.712Z,76.17
2018-03-28T23:35:01.223Z,75.36
2018-03-28T23:37:29.746Z,75.35
2018-03-28T23:39:58.301Z,75.96
2018-03-28T23:42:27.148Z,76.04
2018-03-28T23:44:55.598Z,73.71
2018-03-28T23:47:24.058Z,75.52
2018-03-28T23:49:52.911Z,76.21
2018-03-28T23:52:21.377Z,76.05
2018-03-28T23:54:49.934Z,75.90
2018-03-28T23:57:18.394Z,76.35
2018-03-28T23:59:47.294Z,76.15
